createdAt,value
2016-12-29T00:00:28.167Z,4.9
2016-12-29T00:01:38.022Z,4.85
2016-12-29T00:02:47.875Z,4.93
2016-12-29T00:03:57.711Z,4.85
2016-12-29T00:05:07.957Z,4.93
2016-12-29T00:06:18.372Z,4.8
2016-12-29T00:07:28.236Z,4.78
2016-12-29T00:08:38.563Z,4.95
2016-12-29T00:09:48.427Z,4.93
2016-12-29T00:10:58.701Z,4.9
2016-12-29T00:12:08.157Z,4.9
2016-12-29T00:13:18.386Z,4.83
2016-12-29T00:14:28.244Z,4.98
2016-12-29T00:15:38.106Z,4.85
2016-12-29T00:16:48.365Z,4.93
2016-12-29T00:17:58.595Z,4.86
2016-12-29T00:19:08.476Z,4.86
2016-12-29T00:20:18.643Z,4.83
2016-12-29T00:21:28.871Z,4.8
2016-12-29T00:22:38.796Z,4.8
2016-12-29T00:23:48.691Z,4.8
2016-12-29T00:24:58.934Z,4.85
2016-12-29T00:26:09.239Z,4.85
2016-12-29T00:27:19.519Z,4.86
2016-12-29T00:28:29.757Z,4.86
2016-12-29T00:29:40.038Z,4.75
2016-12-29T00:30:49.885Z,4.81
2016-12-29T00:31:59.337Z,4.81
2016-12-29T00:33:09.256Z,4.83
2016-12-29T00:34:19.559Z,4.86
2016-12-29T00:35:29.457Z,4.78
2016-12-29T00:36:39.713Z,4.7
2016-12-29T00:37:49.986Z,4.73
2016-12-29T00:38:59.889Z,4.8
2016-12-29T00:40:10.168Z,4.81
2016-12-29T00:41:20.463Z,4.83
2016-12-29T00:42:30.393Z,4.8
2016-12-29T00:43:40.239Z,4.73
2016-12-29T00:44:50.127Z,4.71
2016-12-29T00:46:00.064Z,4.73
2016-12-29T00:47:09.547Z,4.7
2016-12-29T00:48:19.804Z,4.77
2016-12-29T00:49:29.679Z,4.71
2016-12-29T00:50:39.985Z,4.73
2016-12-29T00:51:49.829Z,4.73
2016-12-29T00:52:59.656Z,4.75
2016-12-29T00:54:09.906Z,4.75
2016-12-29T00:55:19.743Z,4.78
2016-12-29T00:56:29.173Z,4.8
2016-12-29T00:57:39.430Z,4.74
2016-12-29T00:58:49.670Z,4.73
2016-12-29T00:59:59.116Z,4.67
2016-12-29T01:01:09.427Z,4.8
2016-12-29T01:02:19.918Z,4.74
2016-12-29T01:03:29.358Z,4.74
2016-12-29T01:04:39.640Z,4.73
2016-12-29T01:05:49.483Z,4.83
2016-12-29T01:06:59.404Z,4.77
2016-12-29T01:08:09.241Z,4.67
2016-12-29T01:09:18.718Z,4.78
2016-12-29T01:10:28.209Z,4.77
2016-12-29T01:11:37.641Z,4.83
2016-12-29T01:12:47.881Z,4.74
2016-12-29T01:13:58.107Z,4.77
2016-12-29T01:15:08.108Z,4.78
2016-12-29T01:16:17.579Z,4.83
2016-12-29T01:17:27.510Z,4.83
2016-12-29T01:18:37.417Z,4.75
2016-12-29T01:19:47.653Z,4.78
2016-12-29T01:20:58.100Z,4.8
2016-12-29T01:22:08.395Z,4.81
2016-12-29T01:23:18.642Z,4.78
2016-12-29T01:24:28.497Z,4.73
2016-12-29T01:25:38.738Z,4.77
2016-12-29T01:26:48.594Z,4.77
2016-12-29T01:27:58.453Z,4.8
2016-12-29T01:29:08.760Z,4.63
2016-12-29T01:30:18.783Z,4.7
2016-12-29T01:31:28.641Z,4.7
2016-12-29T01:32:38.919Z,4.62
2016-12-29T01:33:49.203Z,4.63
2016-12-29T01:34:59.548Z,4.74
2016-12-29T01:36:08.997Z,4.65
2016-12-29T01:37:18.884Z,4.74
2016-12-29T01:38:28.764Z,4.74
2016-12-29T01:39:38.998Z,4.73
2016-12-29T01:40:48.484Z,4.73
2016-12-29T01:41:58.339Z,4.65
2016-12-29T01:43:08.634Z,4.77
2016-12-29T01:44:18.499Z,4.63
2016-12-29T01:45:28.431Z,4.74
2016-12-29T01:46:38.320Z,4.77
2016-12-29T01:47:48.598Z,4.73
2016-12-29T01:48:57.636Z,4.68
2016-12-29T01:50:07.469Z,4.7
2016-12-29T01:51:16.945Z,4.68
2016-12-29T01:52:26.819Z,4.67
2016-12-29T01:53:37.166Z,4.7
2016-12-29T01:54:46.998Z,4.65
2016-12-29T01:55:57.237Z,4.68
2016-12-29T01:57:07.485Z,4.7
2016-12-29T01:58:17.865Z,4.7
2016-12-29T01:59:27.731Z,4.7
2016-12-29T02:00:37.206Z,4.62
2016-12-29T02:01:47.576Z,4.68
2016-12-29T02:02:57.820Z,4.71
2016-12-29T02:04:07.251Z,4.63
2016-12-29T02:05:17.554Z,4.74
2016-12-29T02:06:27.013Z,4.78
2016-12-29T02:07:37.372Z,4.73
2016-12-29T02:08:47.413Z,4.85
2016-12-29T02:09:57.694Z,4.85
2016-12-29T02:11:07.593Z,4.85
2016-12-29T02:12:17.041Z,4.85
2016-12-29T02:13:27.005Z,4.7
2016-12-29T02:14:37.243Z,4.75
2016-12-29T02:15:47.492Z,4.81
2016-12-29T02:16:57.328Z,4.71
2016-12-29T02:18:07.161Z,4.74
2016-12-29T02:19:17.025Z,4.7
2016-12-29T02:20:26.975Z,4.68
2016-12-29T02:21:36.408Z,4.65
2016-12-29T02:22:46.645Z,4.57
2016-12-29T02:23:56.552Z,4.65
2016-12-29T02:25:06.832Z,4.68
2016-12-29T02:26:17.068Z,4.71
2016-12-29T02:27:27.293Z,4.67
2016-12-29T02:28:37.236Z,4.68
2016-12-29T02:29:47.545Z,4.65
2016-12-29T02:30:56.962Z,4.71
2016-12-29T02:32:06.420Z,4.6
2016-12-29T02:33:15.458Z,4.67
2016-12-29T02:34:25.291Z,4.67
2016-12-29T02:35:35.180Z,4.68
2016-12-29T02:36:45.121Z,4.73
2016-12-29T02:37:54.995Z,4.71
2016-12-29T02:39:05.283Z,4.7
2016-12-29T02:40:15.115Z,4.7
2016-12-29T02:41:25.587Z,4.67
2016-12-29T02:42:35.894Z,4.65
2016-12-29T02:44:17.471Z,4.57
2016-12-29T02:45:26.937Z,4.62
2016-12-29T02:46:37.245Z,4.57
2016-12-29T02:47:47.221Z,4.62
2016-12-29T02:48:57.489Z,4.6
2016-12-29T02:50:07.320Z,4.59
2016-12-29T02:51:17.158Z,4.63
2016-12-29T02:52:27.000Z,4.68
2016-12-29T02:53:37.239Z,4.62
2016-12-29T02:54:47.474Z,4.63
2016-12-29T02:55:57.315Z,4.56
2016-12-29T02:57:07.180Z,4.56
2016-12-29T02:58:17.196Z,4.65
2016-12-29T02:59:27.054Z,4.7
2016-12-29T03:00:36.921Z,4.65
2016-12-29T03:01:46.378Z,4.67
2016-12-29T03:02:56.687Z,4.62
2016-12-29T03:04:06.158Z,4.56
2016-12-29T03:05:16.420Z,4.59
2016-12-29T03:06:26.262Z,4.55
2016-12-29T03:07:36.626Z,4.63
2016-12-29T03:08:47.152Z,4.65
2016-12-29T03:09:57.071Z,4.65
2016-12-29T03:11:06.949Z,4.7
2016-12-29T03:12:17.171Z,4.62
2016-12-29T03:13:27.391Z,4.63
2016-12-29T03:14:37.306Z,4.6
2016-12-29T03:15:47.554Z,4.62
2016-12-29T03:16:57.392Z,4.59
2016-12-29T03:18:07.769Z,4.55
2016-12-29T03:19:18.080Z,4.53
2016-12-29T03:20:28.313Z,4.6
2016-12-29T03:21:38.542Z,4.59
2016-12-29T03:22:48.779Z,4.55
2016-12-29T03:23:59.060Z,4.6
2016-12-29T03:25:09.310Z,4.63
2016-12-29T03:26:19.182Z,4.56
2016-12-29T03:27:29.546Z,4.67
2016-12-29T03:28:39.787Z,4.63
2016-12-29T03:29:49.615Z,4.68
2016-12-29T03:30:59.515Z,4.67
2016-12-29T03:32:09.744Z,4.62
2016-12-29T03:33:20.246Z,4.55
2016-12-29T03:34:30.189Z,4.56
2016-12-29T03:35:40.438Z,4.65
2016-12-29T03:36:50.328Z,4.63
2016-12-29T03:38:00.171Z,4.63
2016-12-29T03:39:10.058Z,4.55
2016-12-29T03:40:19.933Z,4.56
2016-12-29T03:41:30.167Z,4.56
2016-12-29T03:42:39.587Z,4.59
2016-12-29T03:43:49.834Z,4.57
2016-12-29T03:44:59.672Z,4.57
2016-12-29T03:46:09.598Z,4.53
2016-12-29T03:47:19.920Z,4.5
2016-12-29T03:48:29.861Z,4.41
2016-12-29T03:49:39.366Z,4.47
2016-12-29T03:50:49.242Z,4.38
2016-12-29T03:51:58.688Z,4.37
2016-12-29T03:53:08.561Z,4.4
2016-12-29T03:54:18.093Z,4.41
2016-12-29T03:55:28.363Z,4.4
2016-12-29T03:56:38.592Z,4.41
2016-12-29T03:57:48.837Z,4.27
2016-12-29T03:58:58.690Z,4.3
2016-12-29T04:00:08.942Z,4.36
2016-12-29T04:01:19.200Z,4.27
2016-12-29T04:02:29.053Z,4.31
2016-12-29T04:03:38.090Z,4.31
2016-12-29T04:04:47.640Z,4.23
2016-12-29T04:05:57.896Z,4.31
2016-12-29T04:07:08.177Z,4.34
2016-12-29T04:08:17.603Z,4.27
2016-12-29T04:09:27.437Z,4.2
2016-12-29T04:10:37.279Z,4.18
2016-12-29T04:11:47.133Z,4.23
2016-12-29T04:12:57.392Z,4.22
2016-12-29T04:14:07.222Z,4.22
2016-12-29T04:15:17.121Z,4.25
2016-12-29T04:16:26.977Z,4.22
2016-12-29T04:17:36.439Z,4.23
2016-12-29T04:18:46.275Z,4.27
2016-12-29T04:19:55.776Z,4.27
2016-12-29T04:21:06.022Z,4.22
2016-12-29T04:22:15.860Z,4.2
2016-12-29T04:23:25.325Z,4.23
2016-12-29T04:24:35.585Z,4.16
2016-12-29T04:25:45.820Z,4.12
2016-12-29T04:26:55.672Z,4.15
2016-12-29T04:28:05.913Z,4.19
2016-12-29T04:29:15.798Z,4.11
2016-12-29T04:30:25.293Z,4.19
2016-12-29T04:31:35.211Z,4.22
2016-12-29T04:32:45.083Z,4.22
2016-12-29T04:33:55.307Z,4.15
2016-12-29T04:35:05.151Z,4.19
2016-12-29T04:36:15.490Z,4.22
2016-12-29T04:37:24.986Z,4.13
2016-12-29T04:38:35.217Z,4.18
2016-12-29T04:39:45.259Z,4.13
2016-12-29T04:40:55.528Z,4.19
2016-12-29T04:42:05.359Z,4.13
2016-12-29T04:43:15.603Z,4.18
2016-12-29T04:44:25.925Z,4.2
2016-12-29T04:45:35.928Z,4.16
2016-12-29T04:46:46.197Z,4.15
2016-12-29T04:47:56.434Z,4.13
2016-12-29T04:49:06.274Z,4.27
2016-12-29T04:50:15.771Z,4.13
2016-12-29T04:51:26.005Z,4.18
2016-12-29T04:52:35.545Z,4.16
2016-12-29T04:53:45.106Z,4.2
2016-12-29T04:54:55.375Z,4.2
2016-12-29T04:56:05.651Z,4.12
2016-12-29T04:57:15.897Z,4.2
2016-12-29T04:58:25.740Z,4.12
2016-12-29T04:59:36.054Z,4.2
2016-12-29T05:00:46.320Z,4.2
2016-12-29T05:01:56.214Z,4.18
2016-12-29T05:03:06.487Z,4.23
2016-12-29T05:04:16.719Z,4.19
2016-12-29T05:05:27.002Z,4.19
2016-12-29T05:06:37.342Z,4.23
2016-12-29T05:07:47.611Z,4.16
2016-12-29T05:08:57.443Z,4.28
2016-12-29T05:10:07.686Z,4.22
2016-12-29T05:11:17.948Z,4.18
2016-12-29T05:12:27.780Z,4.22
2016-12-29T05:13:37.611Z,4.27
2016-12-29T05:14:47.858Z,4.2
2016-12-29T05:15:58.126Z,4.25
2016-12-29T05:17:07.965Z,4.19
2016-12-29T05:18:17.427Z,4.25
2016-12-29T05:19:27.688Z,4.28
2016-12-29T05:20:37.946Z,4.25
2016-12-29T05:21:48.184Z,4.22
2016-12-29T05:22:57.211Z,4.19
2016-12-29T05:24:06.650Z,4.22
2016-12-29T05:25:16.958Z,4.22
2016-12-29T05:26:26.805Z,4.22
2016-12-29T05:27:37.092Z,4.13
2016-12-29T05:28:47.444Z,4.27
2016-12-29T05:29:57.314Z,4.28
2016-12-29T05:31:07.633Z,4.22
2016-12-29T05:32:17.874Z,4.25
2016-12-29T05:33:28.156Z,4.27
2016-12-29T05:34:38.378Z,4.22
2016-12-29T05:35:48.331Z,4.13
2016-12-29T05:36:58.169Z,4.22
2016-12-29T05:38:08.026Z,4.27
2016-12-29T05:39:17.933Z,4.19
2016-12-29T05:40:27.365Z,4.27
2016-12-29T05:41:36.798Z,4.09
2016-12-29T05:42:46.694Z,4.12
2016-12-29T05:43:55.729Z,4.11
2016-12-29T05:45:05.175Z,4.16
2016-12-29T05:46:15.405Z,4.13
2016-12-29T05:47:25.284Z,4.16
2016-12-29T05:48:35.146Z,4.12
2016-12-29T05:49:44.988Z,4.19
2016-12-29T05:50:54.827Z,4.2
2016-12-29T05:52:04.707Z,4.15
2016-12-29T05:53:14.777Z,4.08
2016-12-29T05:54:24.225Z,4.15
2016-12-29T05:55:34.502Z,4.25
2016-12-29T05:56:43.954Z,4.2
2016-12-29T05:57:53.877Z,4.22
2016-12-29T05:59:03.699Z,4.11
2016-12-29T06:00:13.539Z,4.11
2016-12-29T06:01:23.834Z,4.12
2016-12-29T06:02:34.103Z,4.19
2016-12-29T06:03:43.980Z,4.12
2016-12-29T06:04:53.830Z,4.2
2016-12-29T06:06:03.757Z,4.16
2016-12-29T06:07:14.022Z,4.11
2016-12-29T06:08:24.281Z,4.12
2016-12-29T06:09:34.647Z,4.15
2016-12-29T06:10:44.496Z,4.19
2016-12-29T06:11:54.341Z,4.15
2016-12-29T06:13:04.592Z,4.16
2016-12-29T06:14:14.846Z,4.22
2016-12-29T06:15:24.721Z,4.12
2016-12-29T06:16:35.064Z,4.11
2016-12-29T06:17:45.355Z,4.12
2016-12-29T06:18:55.229Z,4.12
2016-12-29T06:20:05.188Z,4.16
2016-12-29T06:21:15.008Z,4.15
2016-12-29T06:22:25.244Z,4.16
2016-12-29T06:23:34.718Z,4.13
2016-12-29T06:24:44.184Z,4.01
2016-12-29T06:25:54.417Z,4.2
2016-12-29T06:27:03.840Z,4.04
2016-12-29T06:28:14.092Z,4.13
2016-12-29T06:29:24.405Z,4.09
2016-12-29T06:30:34.675Z,4.13
2016-12-29T06:31:44.979Z,4.04
2016-12-29T06:32:55.213Z,4.13
2016-12-29T06:34:05.122Z,4.12
2016-12-29T06:35:14.960Z,3.98
2016-12-29T06:36:24.832Z,4.11
2016-12-29T06:37:34.676Z,4.03
2016-12-29T06:38:44.937Z,4.01
2016-12-29T06:39:55.197Z,4.05
2016-12-29T06:41:05.432Z,4.08
2016-12-29T06:42:15.292Z,3.98
2016-12-29T06:43:25.148Z,4.11
2016-12-29T06:44:35.418Z,4.11
2016-12-29T06:45:45.277Z,4.03
2016-12-29T06:46:55.529Z,4.05
2016-12-29T06:48:05.407Z,3.98
2016-12-29T06:49:15.667Z,4.13
2016-12-29T06:50:25.909Z,4.01
2016-12-29T06:51:35.808Z,4.04
2016-12-29T06:52:46.057Z,4.03
2016-12-29T06:53:55.902Z,4.01
2016-12-29T06:55:05.886Z,4.11
2016-12-29T06:56:16.255Z,4.09
2016-12-29T06:57:25.696Z,4.04
2016-12-29T06:58:35.154Z,4.04
2016-12-29T06:59:45.426Z,4.05
2016-12-29T07:00:55.403Z,3.98
2016-12-29T07:02:05.334Z,4.01
2016-12-29T07:03:15.604Z,4.11
2016-12-29T07:04:25.500Z,4.04
2016-12-29T07:05:35.762Z,4.05
2016-12-29T07:06:46.023Z,4
2016-12-29T07:07:56.278Z,4.01
2016-12-29T07:09:05.775Z,4
2016-12-29T07:10:16.020Z,4.05
2016-12-29T07:11:25.859Z,4.03
2016-12-29T07:12:35.315Z,4.01
2016-12-29T07:13:44.819Z,4.04
2016-12-29T07:14:55.079Z,4.05
2016-12-29T07:16:05.339Z,4
2016-12-29T07:17:15.167Z,4.04
2016-12-29T07:18:25.499Z,4.04
2016-12-29T07:19:35.773Z,4.05
2016-12-29T07:20:45.613Z,4.03
2016-12-29T07:21:55.527Z,4.04
2016-12-29T07:23:05.061Z,4.03
2016-12-29T07:24:15.319Z,4.09
2016-12-29T07:25:24.748Z,4
2016-12-29T07:26:34.586Z,4.03
2016-12-29T07:27:44.873Z,4.08
2016-12-29T07:28:55.127Z,4.04
2016-12-29T07:30:04.717Z,4.01
2016-12-29T07:31:14.579Z,4.18
2016-12-29T07:32:24.448Z,4.15
2016-12-29T07:33:34.741Z,4.05
2016-12-29T07:34:44.665Z,4.09
2016-12-29T07:35:54.155Z,4.11
2016-12-29T07:37:04.021Z,4.09
2016-12-29T07:38:14.268Z,4.16
2016-12-29T07:39:24.136Z,4.11
2016-12-29T07:40:34.379Z,4.15
2016-12-29T07:41:43.824Z,4.03
2016-12-29T07:42:54.181Z,3.97
2016-12-29T07:44:04.560Z,4.03
2016-12-29T07:45:14.040Z,4.08
2016-12-29T07:46:23.903Z,4.08
2016-12-29T07:47:34.177Z,4.01
2016-12-29T07:48:44.470Z,4.03
2016-12-29T07:49:54.344Z,4.05
2016-12-29T07:51:04.222Z,4.01
2016-12-29T07:52:13.655Z,4
2016-12-29T07:53:23.530Z,3.98
2016-12-29T07:54:33.381Z,4.04
2016-12-29T07:55:42.825Z,3.98
2016-12-29T07:56:53.165Z,4.04
2016-12-29T07:58:03.102Z,3.97
2016-12-29T07:59:13.453Z,4
2016-12-29T08:00:23.720Z,4.05
2016-12-29T08:01:33.965Z,4.09
2016-12-29T08:02:43.995Z,4.18
2016-12-29T08:03:54.260Z,4.08
2016-12-29T08:05:04.226Z,4.11
2016-12-29T08:06:14.066Z,4.08
2016-12-29T08:07:23.513Z,4.13
2016-12-29T08:08:33.823Z,4.12
2016-12-29T08:09:44.112Z,4.15
2016-12-29T08:10:54.138Z,4.18
2016-12-29T08:12:03.570Z,4.18
2016-12-29T08:13:13.439Z,4.16
2016-12-29T08:14:23.367Z,4.19
2016-12-29T08:15:33.218Z,4.19
2016-12-29T08:16:43.046Z,4.19
2016-12-29T08:17:52.901Z,4.16
2016-12-29T08:19:02.740Z,4.18
2016-12-29T08:20:13.013Z,4.16
2016-12-29T08:21:22.874Z,4.25
2016-12-29T08:22:32.755Z,4.2
2016-12-29T08:23:43.001Z,4.18
2016-12-29T08:24:52.972Z,4.2
2016-12-29T08:26:02.810Z,4.23
2016-12-29T08:27:12.669Z,4.2
2016-12-29T08:28:22.579Z,4.2
2016-12-29T08:29:32.898Z,4.18
2016-12-29T08:30:42.760Z,4.19
2016-12-29T08:31:52.349Z,4.22
2016-12-29T08:33:02.668Z,4.27
2016-12-29T08:34:12.552Z,4.19
2016-12-29T08:35:22.916Z,4.2
2016-12-29T08:36:33.169Z,4.19
2016-12-29T08:37:43.443Z,4.28
2016-12-29T08:38:53.396Z,4.3
2016-12-29T08:40:03.709Z,4.33
2016-12-29T08:41:13.930Z,4.3
2016-12-29T08:42:23.777Z,4.36
2016-12-29T08:43:34.071Z,4.43
2016-12-29T08:44:43.992Z,4.36
2016-12-29T08:45:53.491Z,4.4
2016-12-29T08:47:03.334Z,4.41
2016-12-29T08:48:12.860Z,4.47
2016-12-29T08:49:23.143Z,4.5
2016-12-29T08:50:33.028Z,4.5
2016-12-29T08:51:42.979Z,4.59
2016-12-29T08:52:52.414Z,4.62
2016-12-29T08:54:02.731Z,4.65
2016-12-29T08:55:13.115Z,4.71
2016-12-29T08:56:23.450Z,4.67
2016-12-29T08:57:33.283Z,4.6
2016-12-29T08:58:43.635Z,4.71
2016-12-29T08:59:53.551Z,4.67
2016-12-29T09:01:02.977Z,4.77
2016-12-29T09:02:13.255Z,4.73
2016-12-29T09:03:23.529Z,4.86
2016-12-29T09:04:33.018Z,4.78
2016-12-29T09:05:42.915Z,4.86
2016-12-29T09:06:53.218Z,4.77
2016-12-29T09:08:03.104Z,4.92
2016-12-29T09:09:13.394Z,4.89
2016-12-29T09:10:23.785Z,4.96
2016-12-29T09:11:33.696Z,5.07
2016-12-29T09:12:43.588Z,5.13
2016-12-29T09:13:53.425Z,5.13
2016-12-29T09:15:03.690Z,5.24
2016-12-29T09:16:13.986Z,5.24
2016-12-29T09:17:23.925Z,5.26
2016-12-29T09:18:33.878Z,5.28
2016-12-29T09:19:44.158Z,5.28
2016-12-29T09:20:54.052Z,5.21
2016-12-29T09:22:04.288Z,5.29
2016-12-29T09:23:14.519Z,5.32
2016-12-29T09:24:24.433Z,5.41
2016-12-29T09:25:34.698Z,5.35
2016-12-29T09:26:44.552Z,5.4
2016-12-29T09:27:54.800Z,5.44
2016-12-29T09:29:05.131Z,5.43
2016-12-29T09:30:15.365Z,5.58
2016-12-29T09:31:24.933Z,5.54
2016-12-29T09:32:34.788Z,5.49
2016-12-29T09:33:44.656Z,5.62
2016-12-29T09:34:54.561Z,5.68
2016-12-29T09:36:04.425Z,5.74
2016-12-29T09:37:14.286Z,5.9
2016-12-29T09:38:24.133Z,5.91
2016-12-29T09:39:34.367Z,5.91
2016-12-29T09:40:43.836Z,6.03
2016-12-29T09:41:53.671Z,6.08
2016-12-29T09:43:03.991Z,6.14
2016-12-29T09:44:14.266Z,6.16
2016-12-29T09:45:23.777Z,6.11
2016-12-29T09:46:34.090Z,6.23
2016-12-29T09:47:43.523Z,6.31
2016-12-29T09:48:53.504Z,6.31
2016-12-29T09:50:03.395Z,6.42
2016-12-29T09:51:13.699Z,6.46
2016-12-29T09:52:23.951Z,6.53
2016-12-29T09:53:34.191Z,6.56
2016-12-29T09:54:44.461Z,6.6
2016-12-29T09:55:54.292Z,6.62
2016-12-29T09:57:03.781Z,6.49
2016-12-29T09:58:14.081Z,6.59
2016-12-29T09:59:23.967Z,6.6
2016-12-29T10:00:33.036Z,6.66
2016-12-29T10:01:42.885Z,7.02
2016-12-29T10:02:53.223Z,7.52
2016-12-29T10:04:02.659Z,7.7
2016-12-29T10:05:12.921Z,8.1
2016-12-29T10:06:23.234Z,8.49
2016-12-29T10:07:32.289Z,8.98
2016-12-29T10:08:42.198Z,9.37
2016-12-29T10:09:52.434Z,9.62
2016-12-29T10:11:02.687Z,9.99
2016-12-29T10:12:12.771Z,10.27
2016-12-29T10:13:22.755Z,10.87
2016-12-29T10:14:32.604Z,11.23
2016-12-29T10:15:42.911Z,11.49
2016-12-29T10:16:53.226Z,11.99
2016-12-29T10:18:03.465Z,12.29
2016-12-29T10:19:13.308Z,12.59
2016-12-29T10:20:23.574Z,12.82
2016-12-29T10:21:33.426Z,12.92
2016-12-29T10:22:42.876Z,12.95
2016-12-29T10:23:52.351Z,12.93
2016-12-29T10:25:01.884Z,13
2016-12-29T10:26:12.140Z,13.11
2016-12-29T10:27:22.423Z,13.3
2016-12-29T10:28:32.365Z,13.44
2016-12-29T10:29:42.626Z,13.4
2016-12-29T10:30:52.469Z,13.37
2016-12-29T10:32:02.746Z,13.45
2016-12-29T10:33:13.139Z,13.46
2016-12-29T10:34:23.497Z,13.4
2016-12-29T10:35:33.388Z,13.55
2016-12-29T10:36:42.889Z,13.56
2016-12-29T10:37:53.168Z,13.64
2016-12-29T10:39:03.409Z,13.79
2016-12-29T10:40:12.863Z,13.89
2016-12-29T10:41:22.789Z,13.99
2016-12-29T10:42:32.656Z,14.19
2016-12-29T10:43:42.998Z,14.1
2016-12-29T10:44:53.257Z,14.04
2016-12-29T10:46:03.517Z,14.02
2016-12-29T10:47:13.407Z,13.89
2016-12-29T10:48:23.255Z,13.89
2016-12-29T10:49:33.260Z,13.79
2016-12-29T10:50:42.777Z,13.82
2016-12-29T10:51:53.147Z,13.76
2016-12-29T10:53:03.212Z,13.67
2016-12-29T10:54:13.068Z,13.76
2016-12-29T10:55:23.321Z,13.7
2016-12-29T10:56:33.258Z,13.81
2016-12-29T10:57:42.713Z,13.82
2016-12-29T10:58:52.169Z,14.02
2016-12-29T11:00:02.064Z,14.11
2016-12-29T11:01:11.931Z,14.24
2016-12-29T11:02:21.426Z,14.19
2016-12-29T11:03:31.670Z,14.24
2016-12-29T11:04:41.578Z,14.22
2016-12-29T11:05:51.910Z,14.26
2016-12-29T11:07:02.169Z,14.25
2016-12-29T11:08:12.423Z,14.25
2016-12-29T11:09:22.270Z,14.43
2016-12-29T11:10:32.530Z,14.39
2016-12-29T11:11:42.448Z,14.37
2016-12-29T11:12:52.327Z,14.36
2016-12-29T11:14:02.227Z,14.34
2016-12-29T11:15:12.144Z,14.44
2016-12-29T11:16:21.586Z,14.47
2016-12-29T11:17:31.896Z,14.54
2016-12-29T11:18:42.177Z,14.36
2016-12-29T11:19:52.577Z,14.29
2016-12-29T11:21:02.823Z,14.14
2016-12-29T11:22:13.066Z,14.22
2016-12-29T11:23:22.610Z,14.11
2016-12-29T11:24:32.895Z,14.11
2016-12-29T11:25:42.411Z,14
2016-12-29T11:26:52.768Z,13.73
2016-12-29T11:28:02.724Z,13.55
2016-12-29T11:29:13.032Z,13.34
2016-12-29T11:30:23.427Z,13.08
2016-12-29T11:31:33.777Z,12.77
2016-12-29T11:32:43.626Z,12.47
2016-12-29T11:33:53.990Z,12.08
2016-12-29T11:35:04.269Z,11.71
2016-12-29T11:36:14.532Z,11.48
2016-12-29T11:37:24.441Z,11.16
2016-12-29T11:38:34.427Z,10.9
2016-12-29T11:39:44.265Z,10.7
2016-12-29T11:40:53.338Z,10.5
2016-12-29T11:42:03.187Z,10.27
2016-12-29T11:43:13.476Z,10.18
2016-12-29T11:44:23.378Z,10.02
2016-12-29T11:45:32.459Z,10.08
2016-12-29T11:46:42.298Z,10
2016-12-29T11:47:52.530Z,9.99
2016-12-29T11:49:02.875Z,9.62
2016-12-29T11:50:12.800Z,9.55
2016-12-29T11:51:22.244Z,9.35
2016-12-29T11:52:32.512Z,9.01
2016-12-29T11:53:42.417Z,8.75
2016-12-29T11:54:52.700Z,8.63
2016-12-29T11:56:02.944Z,8.57
2016-12-29T11:57:13.326Z,8.5
2016-12-29T11:58:22.775Z,8.34
2016-12-29T11:59:33.097Z,8.16
2016-12-29T12:00:43.354Z,8.21
2016-12-29T12:01:53.202Z,8.16
2016-12-29T12:03:03.107Z,8.06
2016-12-29T12:04:13.453Z,8.09
2016-12-29T12:05:23.738Z,8.02
2016-12-29T12:06:33.360Z,8.07
2016-12-29T12:07:43.312Z,7.84
2016-12-29T12:08:53.581Z,7.84
2016-12-29T12:10:03.858Z,7.79
2016-12-29T12:11:14.117Z,7.74
2016-12-29T12:12:24.397Z,7.55
2016-12-29T12:13:34.248Z,7.41
2016-12-29T12:14:44.605Z,7.36
2016-12-29T12:15:54.463Z,7.31
2016-12-29T12:17:04.783Z,7.29
2016-12-29T12:18:15.056Z,7.2
2016-12-29T12:19:24.904Z,7.22
2016-12-29T12:20:35.225Z,7.11
2016-12-29T12:21:45.063Z,7.15
2016-12-29T12:22:55.424Z,7.03
2016-12-29T12:24:05.689Z,7.02
2016-12-29T12:25:15.669Z,6.97
2016-12-29T12:26:25.969Z,6.89
2016-12-29T12:27:35.820Z,6.81
2016-12-29T12:28:45.713Z,6.81
2016-12-29T12:29:56.008Z,6.75
2016-12-29T12:31:06.263Z,6.74
2016-12-29T12:32:16.518Z,6.77
2016-12-29T12:33:26.903Z,6.75
2016-12-29T12:34:37.199Z,6.56
2016-12-29T12:35:47.524Z,6.46
2016-12-29T12:36:57.780Z,6.56
2016-12-29T12:38:07.220Z,6.31
2016-12-29T12:39:17.468Z,6.36
2016-12-29T12:40:26.927Z,6.34
2016-12-29T12:41:36.379Z,6.23
2016-12-29T12:42:46.224Z,6.28
2016-12-29T12:43:56.596Z,6.17
2016-12-29T12:45:06.854Z,6.2
2016-12-29T12:46:16.779Z,6.12
2016-12-29T12:47:26.257Z,6.11
2016-12-29T12:48:36.629Z,6.14
2016-12-29T12:49:46.964Z,6.05
2016-12-29T12:51:29.034Z,6.06
2016-12-29T12:52:39.274Z,6.11
2016-12-29T12:53:49.532Z,6.17
2016-12-29T12:54:59.426Z,6.08
2016-12-29T12:56:09.320Z,6.08
2016-12-29T12:57:19.615Z,6.05
2016-12-29T12:58:30.746Z,5.91
2016-12-29T12:59:39.878Z,5.86
2016-12-29T13:00:49.725Z,6.06
2016-12-29T13:02:00.033Z,6.06
2016-12-29T13:03:09.918Z,6.06
2016-12-29T13:04:19.748Z,6.03
2016-12-29T13:05:28.780Z,6.06
2016-12-29T13:06:39.131Z,6.08
2016-12-29T13:07:49.500Z,6.03
2016-12-29T13:08:58.966Z,6.05
2016-12-29T13:10:08.984Z,6.03
2016-12-29T13:11:18.026Z,5.99
2016-12-29T13:12:27.864Z,5.9
2016-12-29T13:13:37.778Z,5.79
2016-12-29T13:14:48.077Z,5.86
2016-12-29T13:15:57.608Z,5.8
2016-12-29T13:17:07.047Z,5.77
2016-12-29T13:18:16.596Z,5.64
2016-12-29T13:19:26.899Z,5.67
2016-12-29T13:20:36.734Z,5.71
2016-12-29T13:21:46.636Z,5.67
2016-12-29T13:22:56.463Z,5.69
2016-12-29T13:24:06.862Z,5.67
2016-12-29T13:25:16.356Z,5.69
2016-12-29T13:26:26.664Z,5.74
2016-12-29T13:27:37.038Z,5.69
2016-12-29T13:28:47.303Z,5.72
2016-12-29T13:29:57.140Z,5.69
2016-12-29T13:31:07.023Z,5.54
2016-12-29T13:32:16.953Z,5.46
2016-12-29T13:33:27.332Z,5.4
2016-12-29T13:34:37.645Z,5.32
2016-12-29T13:35:47.159Z,5.29
2016-12-29T13:36:57.589Z,5.28
2016-12-29T13:38:07.860Z,5.25
2016-12-29T13:39:17.732Z,5.26
2016-12-29T13:40:27.580Z,5.25
2016-12-29T13:41:37.035Z,5.28
2016-12-29T13:42:47.278Z,5.21
2016-12-29T13:43:57.680Z,5.21
2016-12-29T13:45:07.533Z,5.26
2016-12-29T13:46:17.828Z,5.24
2016-12-29T13:47:28.160Z,5.24
2016-12-29T13:48:38.404Z,5.24
2016-12-29T13:49:48.684Z,5.29
2016-12-29T13:50:58.552Z,5.25
2016-12-29T13:52:08.836Z,5.21
2016-12-29T13:53:18.718Z,5.21
2016-12-29T13:54:28.982Z,5.28
2016-12-29T13:55:38.942Z,5.25
2016-12-29T13:56:49.192Z,5.26
2016-12-29T13:57:59.477Z,5.32
2016-12-29T13:59:09.801Z,5.24
2016-12-29T14:00:19.636Z,5.28
2016-12-29T14:01:29.476Z,5.22
2016-12-29T14:02:39.415Z,5.26
2016-12-29T14:03:49.304Z,5.24
2016-12-29T14:04:59.549Z,5.22
2016-12-29T14:06:09.395Z,5.21
2016-12-29T14:07:19.243Z,5.16
2016-12-29T14:08:29.330Z,5.18
2016-12-29T14:09:39.752Z,5.22
2016-12-29T14:10:50.075Z,5.16
2016-12-29T14:12:00.315Z,5.11
2016-12-29T14:13:10.167Z,5.13
2016-12-29T14:14:19.209Z,5.04
2016-12-29T14:15:28.737Z,4.92
2016-12-29T14:16:39.056Z,4.78
2016-12-29T14:17:49.320Z,4.73
2016-12-29T14:18:59.404Z,4.74
2016-12-29T14:20:08.878Z,4.74
2016-12-29T14:21:19.295Z,4.74
2016-12-29T14:22:28.336Z,4.71
2016-12-29T14:23:38.637Z,4.68
2016-12-29T14:24:48.612Z,4.7
2016-12-29T14:25:58.943Z,4.73
2016-12-29T14:27:09.216Z,4.7
2016-12-29T14:28:19.251Z,4.57
2016-12-29T14:29:29.209Z,4.6
2016-12-29T14:30:39.535Z,4.57
2016-12-29T14:31:49.778Z,4.63
2016-12-29T14:32:59.479Z,4.67
2016-12-29T14:34:09.913Z,4.67
2016-12-29T14:35:19.766Z,4.57
2016-12-29T14:36:30.138Z,4.55
2016-12-29T14:37:39.993Z,4.59
2016-12-29T14:38:50.261Z,4.52
2016-12-29T14:39:59.701Z,4.47
2016-12-29T14:41:10.224Z,4.43
2016-12-29T14:42:20.483Z,4.43
2016-12-29T14:43:30.355Z,4.52
2016-12-29T14:44:39.819Z,4.47
2016-12-29T14:45:50.076Z,4.4
2016-12-29T14:46:59.545Z,4.41
2016-12-29T14:48:09.397Z,4.38
2016-12-29T14:49:19.313Z,4.46
2016-12-29T14:50:29.796Z,4.41
2016-12-29T14:51:39.228Z,4.46
2016-12-29T14:52:49.257Z,4.36
2016-12-29T14:53:59.518Z,4.33
2016-12-29T14:55:09.755Z,4.25
2016-12-29T14:56:18.801Z,4.25
2016-12-29T14:57:29.090Z,4.2
2016-12-29T14:58:39.384Z,4.2
2016-12-29T14:59:49.214Z,4.23
2016-12-29T15:00:59.062Z,4.16
2016-12-29T15:02:09.378Z,4.15
2016-12-29T15:03:18.448Z,4.05
2016-12-29T15:04:28.741Z,4.01
2016-12-29T15:05:38.601Z,3.95
2016-12-29T15:06:48.848Z,4.01
2016-12-29T15:07:58.824Z,4.03
2016-12-29T15:09:09.115Z,3.97
2016-12-29T15:10:19.373Z,3.94
2016-12-29T15:11:29.651Z,3.93
2016-12-29T15:12:39.610Z,3.93
2016-12-29T15:13:49.523Z,3.87
2016-12-29T15:14:59.417Z,3.95
2016-12-29T15:16:08.888Z,3.91
2016-12-29T15:17:19.256Z,3.85
2016-12-29T15:18:29.724Z,3.85
2016-12-29T15:19:39.627Z,3.85
2016-12-29T15:20:49.479Z,3.79
2016-12-29T15:21:59.946Z,3.76
2016-12-29T15:23:10.249Z,3.75
2016-12-29T15:24:20.573Z,3.73
2016-12-29T15:25:30.435Z,3.73
2016-12-29T15:26:40.675Z,3.68
2016-12-29T15:27:50.601Z,3.65
2016-12-29T15:29:00.753Z,3.69
2016-12-29T15:30:10.585Z,3.75
2016-12-29T15:31:20.723Z,3.65
2016-12-29T15:32:30.325Z,3.79
2016-12-29T15:33:40.342Z,3.69